Time;durP1;ratioP1;P1;durP2;ratioP2;P2;SDS_P1;SDS_P2;PMS_P1;PMS_P2;Temp;Humidity;BMP_temperature;BMP_pressure;BME280_temperature;BME280_humidity;BME280_pressure;Samples;Min_cycle;Max_cycle;Signal;HPM_P1;HPM_P2
2022/06/18 00:00:16;;;;;;;7.78;4.78;;;15.70;99.90;;;;;;5071773;28;20024;-75
2022/06/18 00:02:42;;;;;;;5.97;4.78;;;15.60;99.90;;;;;;5064107;28;20035;-75
2022/06/18 00:05:10;;;;;;;7.25;4.28;;;15.60;99.90;;;;;;5053886;28;20093;-75
2022/06/18 00:07:40;;;;;;;7.47;4.47;;;15.60;99.90;;;;;;5044194;28;20032;-75
2022/06/18 00:10:06;;;;;;;7.90;3.97;;;15.60;99.90;;;;;;5071486;28;20167;-75
2022/06/18 00:15:23;;;;;;;10.27;4.97;;;15.60;99.90;;;;;;5072006;28;20437;-75
2022/06/18 00:17:50;;;;;;;7.97;4.65;;;15.60;99.90;;;;;;5054467;28;20437;-75
2022/06/18 00:20:17;;;;;;;8.35;4.22;;;15.50;99.90;;;;;;5071692;28;20069;-75
2022/06/18 00:22:46;;;;;;;4.28;3.50;;;15.60;99.90;;;;;;5053430;28;20371;-75
2022/06/18 00:25:17;;;;;;;5.70;3.67;;;15.60;99.90;;;;;;5071192;28;20372;-75
2022/06/18 00:27:43;;;;;;;8.40;3.72;;;15.50;99.90;;;;;;5071714;28;20024;-75
2022/06/18 00:30:17;;;;;;;3.83;3.20;;;15.50;99.90;;;;;;5065382;28;20036;-75
2022/06/18 00:32:43;;;;;;;7.10;3.50;;;15.50;99.90;;;;;;5071609;28;20488;-75
2022/06/18 00:35:08;;;;;;;5.78;3.20;;;15.50;99.90;;;;;;5071243;28;20032;-75
2022/06/18 00:37:34;;;;;;;4.50;2.83;;;15.40;99.90;;;;;;5071357;28;20036;-75
2022/06/18 00:40:00;;;;;;;7.32;4.00;;;15.40;99.90;;;;;;5071169;28;20474;-75
2022/06/18 00:42:29;;;;;;;11.07;3.80;;;15.40;99.90;;;;;;5071522;28;20027;-75
2022/06/18 00:44:59;;;;;;;5.35;2.90;;;15.40;99.90;;;;;;5061132;28;20039;-75
2022/06/18 00:47:31;;;;;;;4.05;3.10;;;15.40;99.90;;;;;;5062536;28;20035;-75
2022/06/18 00:50:21;;;;;;;5.53;3.05;;;15.40;99.90;;;;;;5066029;28;20075;-75
2022/06/18 00:52:57;;;;;;;7.35;3.30;;;15.40;99.90;;;;;;5071449;28;20100;-75
2022/06/18 00:55:45;;;;;;;7.78;3.50;;;15.40;99.90;;;;;;5053290;28;20024;-75
2022/06/18 00:58:27;;;;;;;6.47;3.33;;;15.40;99.90;;;;;;5058664;28;20033;-75
2022/06/18 01:00:55;;;;;;;6.93;3.25;;;15.30;99.90;;;;;;5026486;28;20120;-75
2022/06/18 01:03:22;;;;;;;4.20;2.95;;;15.30;99.90;;;;;;5070960;28;20021;-75
2022/06/18 01:05:48;;;;;;;4.47;3.40;;;15.30;99.90;;;;;;5061441;28;20029;-76
2022/06/18 01:08:19;;;;;;;6.00;3.40;;;15.20;99.90;;;;;;5033166;28;20711;-76
2022/06/18 01:10:51;;;;;;;5.70;3.63;;;15.20;99.90;;;;;;5050980;28;20128;-76
2022/06/18 01:13:21;;;;;;;6.13;3.30;;;15.20;99.90;;;;;;5057806;28;20021;-76
2022/06/18 01:15:48;;;;;;;5.20;3.53;;;15.10;99.90;;;;;;5057364;28;20025;-76
2022/06/18 01:18:15;;;;;;;8.18;3.50;;;15.10;99.90;;;;;;5054598;28;20032;-76
2022/06/18 01:20:51;;;;;;;5.47;3.10;;;15.10;99.90;;;;;;5063731;28;20035;-76
2022/06/18 01:23:29;;;;;;;3.75;3.03;;;15.00;99.90;;;;;;5050657;28;20205;-76
2022/06/18 01:25:55;;;;;;;6.60;3.63;;;15.00;99.90;;;;;;5047309;28;20031;-76
2022/06/18 01:28:21;;;;;;;9.93;3.35;;;15.00;99.90;;;;;;5050689;28;20350;-76
2022/06/18 01:30:47;;;;;;;4.85;3.05;;;14.90;99.90;;;;;;5048935;28;20557;-76
2022/06/18 01:33:14;;;;;;;5.30;3.15;;;14.90;99.90;;;;;;5045283;28;20131;-76
2022/06/18 01:35:48;;;;;;;5.88;3.33;;;14.90;99.90;;;;;;5050347;28;20422;-76
2022/06/18 01:38:14;;;;;;;6.07;3.53;;;14.80;99.90;;;;;;5050520;28;20032;-76
2022/06/18 01:44:04;;;;;;;4.35;3.08;;;14.80;99.90;;;;;;5052002;28;20074;-76
2022/06/18 01:46:30;;;;;;;5.22;3.08;;;14.70;99.90;;;;;;5052653;28;20088;-76
2022/06/18 01:48:59;;;;;;;4.35;3.30;;;14.70;99.90;;;;;;5034938;28;20044;-76
2022/06/18 01:51:32;;;;;;;4.38;3.20;;;14.70;99.90;;;;;;5052925;28;20458;-76
2022/06/18 01:54:30;;;;;;;6.63;2.97;;;14.70;99.90;;;;;;5052805;28;20489;-76
2022/06/18 01:57:00;;;;;;;4.65;3.28;;;14.60;99.90;;;;;;5040732;28;20033;-76
2022/06/18 01:59:35;;;;;;;4.70;3.15;;;14.60;99.90;;;;;;5033874;28;20193;-76
2022/06/18 02:02:03;;;;;;;10.48;3.25;;;14.60;99.90;;;;;;5052025;28;20028;-76
2022/06/18 02:04:30;;;;;;;5.65;3.30;;;14.50;99.90;;;;;;5051721;28;20025;-76
2022/06/18 02:06:55;;;;;;;6.20;3.40;;;14.50;99.90;;;;;;5033597;28;20439;-76
2022/06/18 02:09:49;;;;;;;4.32;3.33;;;14.40;99.90;;;;;;5050322;28;20115;-76
2022/06/18 02:12:18;;;;;;;7.70;3.60;;;14.40;99.90;;;;;;5052845;28;20026;-76
2022/06/18 02:14:48;;;;;;;6.43;3.40;;;14.40;99.90;;;;;;5054219;28;20025;-76
2022/06/18 02:17:18;;;;;;;5.47;3.25;;;14.30;99.90;;;;;;5051003;28;20017;-76
2022/06/18 02:20:03;;;;;;;6.97;3.50;;;14.30;99.90;;;;;;5052399;28;20025;-76
2022/06/18 02:22:34;;;;;;;3.95;3.13;;;14.30;99.90;;;;;;5053516;28;20025;-76
2022/06/18 02:25:00;;;;;;;6.05;3.72;;;14.30;99.90;;;;;;5053208;28;20056;-76
2022/06/18 02:27:25;;;;;;;5.38;3.47;;;14.30;99.90;;;;;;5053664;28;20717;-76
2022/06/18 02:29:53;;;;;;;7.32;3.25;;;14.20;99.90;;;;;;5053347;28;20025;-76
2022/06/18 02:32:42;;;;;;;5.35;3.08;;;14.20;99.90;;;;;;5053370;28;20021;-76
2022/06/18 02:35:12;;;;;;;4.30;3.08;;;14.20;99.90;;;;;;5052667;28;20056;-76
2022/06/18 02:37:37;;;;;;;4.65;3.15;;;14.20;99.90;;;;;;5052599;28;20029;-76
2022/06/18 02:40:04;;;;;;;6.43;3.70;;;14.10;99.90;;;;;;5053267;28;20039;-76
2022/06/18 02:42:33;;;;;;;5.90;3.78;;;14.10;99.90;;;;;;5053720;28;20071;-76
2022/06/18 02:45:02;;;;;;;7.93;3.47;;;14.10;99.90;;;;;;5053358;28;20021;-76
2022/06/18 02:47:28;;;;;;;7.22;3.72;;;14.10;99.90;;;;;;5053217;28;20030;-76
2022/06/18 02:50:00;;;;;;;6.38;3.75;;;14.00;99.90;;;;;;5053218;28;20353;-76
2022/06/18 02:52:30;;;;;;;4.88;3.30;;;14.00;99.90;;;;;;5053324;28;20020;-76
2022/06/18 02:55:30;;;;;;;7.38;3.90;;;14.00;99.90;;;;;;5053638;28;20017;-76
2022/06/18 02:58:21;;;;;;;6.38;3.75;;;13.90;99.90;;;;;;5010365;28;20041;-76
2022/06/18 03:00:53;;;;;;;5.97;3.38;;;13.90;99.90;;;;;;5053079;28;20040;-76
2022/06/18 03:03:21;;;;;;;5.72;3.80;;;13.90;99.90;;;;;;5035123;28;20039;-76
2022/06/18 03:05:48;;;;;;;5.80;3.58;;;13.90;99.90;;;;;;5048237;28;20067;-76
2022/06/18 03:08:14;;;;;;;7.55;3.70;;;13.90;99.90;;;;;;5053019;28;20024;-76
2022/06/18 03:13:25;;;;;;;5.25;3.60;;;13.80;99.90;;;;;;5052834;28;20501;-76
2022/06/18 03:15:54;;;;;;;6.95;3.90;;;13.80;99.90;;;;;;5052597;28;20064;-76
2022/06/18 03:18:22;;;;;;;5.95;3.55;;;13.80;99.90;;;;;;5049245;28;20033;-76
2022/06/18 03:21:10;;;;;;;5.40;3.70;;;13.80;99.90;;;;;;5047760;28;20109;-76
2022/06/18 03:23:36;;;;;;;6.00;3.40;;;13.70;99.90;;;;;;5052035;28;20067;-76
2022/06/18 03:26:02;;;;;;;8.75;3.50;;;13.80;99.90;;;;;;5052218;28;20055;-76
2022/06/18 03:28:29;;;;;;;6.72;3.78;;;13.80;99.90;;;;;;5052330;28;20381;-76
2022/06/18 03:30:55;;;;;;;5.53;4.25;;;13.70;99.90;;;;;;5052553;28;20143;-76
2022/06/18 03:33:21;;;;;;;6.63;4.35;;;13.80;99.90;;;;;;5052011;28;20036;-76
2022/06/18 03:35:48;;;;;;;7.28;3.83;;;13.80;99.90;;;;;;5052796;28;20041;-76
2022/06/18 03:38:15;;;;;;;7.18;3.80;;;13.80;99.90;;;;;;5051950;28;20037;-76
2022/06/18 03:40:43;;;;;;;6.40;3.70;;;13.80;99.90;;;;;;5052263;28;20029;-76
2022/06/18 03:43:08;;;;;;;7.32;3.55;;;13.80;99.90;;;;;;5046786;28;20033;-76
2022/06/18 03:45:43;;;;;;;9.85;3.60;;;13.80;99.90;;;;;;5052361;28;20029;-76
2022/06/18 03:48:22;;;;;;;5.93;3.20;;;13.80;99.90;;;;;;5051969;28;20021;-76
2022/06/18 03:50:49;;;;;;;7.05;4.55;;;13.80;99.90;;;;;;5052251;28;20482;-76
2022/06/18 03:53:15;;;;;;;7.38;4.10;;;13.80;99.90;;;;;;5052120;28;20048;-76
2022/06/18 03:55:40;;;;;;;10.27;3.80;;;13.80;99.90;;;;;;5037845;28;20047;-76
2022/06/18 03:58:06;;;;;;;8.15;3.53;;;13.80;99.90;;;;;;5052349;28;20362;-76
2022/06/18 04:00:32;;;;;;;5.05;3.75;;;13.80;99.90;;;;;;5051716;28;20029;-76
2022/06/18 04:02:57;;;;;;;6.45;3.45;;;13.90;99.90;;;;;;5052329;28;20067;-76
2022/06/18 04:05:23;;;;;;;9.90;3.72;;;13.90;99.90;;;;;;5050195;28;20171;-76
2022/06/18 04:07:48;;;;;;;5.38;3.88;;;13.90;99.90;;;;;;5039435;28;20032;-76
2022/06/18 04:10:19;;;;;;;6.72;3.75;;;14.00;99.90;;;;;;5051794;28;20057;-76
2022/06/18 04:12:45;;;;;;;4.07;3.30;;;14.00;99.90;;;;;;5051488;28;20032;-76
2022/06/18 04:15:12;;;;;;;6.35;3.50;;;14.10;99.90;;;;;;5050432;28;20025;-76
2022/06/18 04:17:38;;;;;;;5.35;3.45;;;14.10;99.90;;;;;;5044302;28;20044;-76
2022/06/18 04:20:05;;;;;;;4.32;3.28;;;14.20;99.90;;;;;;5047907;28;20025;-76
2022/06/18 04:22:30;;;;;;;7.05;3.65;;;14.30;99.90;;;;;;5051597;28;20044;-76
2022/06/18 04:24:56;;;;;;;5.00;3.10;;;14.40;99.90;;;;;;5051487;28;20029;-76
2022/06/18 04:27:21;;;;;;;8.85;4.13;;;14.50;99.90;;;;;;5046088;28;20032;-76
2022/06/18 04:29:47;;;;;;;5.90;2.80;;;14.70;99.90;;;;;;5050803;28;20021;-76
2022/06/18 04:32:12;;;;;;;3.42;2.60;;;14.80;99.90;;;;;;5033734;28;20035;-77
2022/06/18 04:34:38;;;;;;;6.70;3.40;;;14.90;99.90;;;;;;5050595;28;20100;-76
2022/06/18 04:37:04;;;;;;;4.25;2.63;;;15.10;99.90;;;;;;5059717;28;20104;-70
2022/06/18 04:39:29;;;;;;;3.05;2.38;;;15.20;99.90;;;;;;5069238;28;20111;-70
2022/06/18 04:41:55;;;;;;;3.92;2.60;;;15.40;99.90;;;;;;5067813;28;20096;-70
2022/06/18 04:44:21;;;;;;;3.78;2.58;;;15.60;99.90;;;;;;5053185;28;20493;-72
2022/06/18 04:46:49;;;;;;;6.43;2.80;;;15.70;99.90;;;;;;5051305;28;20040;-70
2022/06/18 04:49:15;;;;;;;3.00;2.55;;;15.80;99.90;;;;;;5040486;28;20033;-70
2022/06/18 04:51:40;;;;;;;3.25;2.72;;;15.90;99.90;;;;;;5044843;28;20029;-70
2022/06/18 04:54:06;;;;;;;4.63;2.40;;;16.10;99.90;;;;;;5051145;28;20036;-70
2022/06/18 04:56:31;;;;;;;6.63;2.40;;;16.20;99.90;;;;;;5051305;28;20871;-70
2022/06/18 04:58:57;;;;;;;3.35;2.58;;;16.30;99.90;;;;;;5051096;28;20465;-70
2022/06/18 05:01:29;;;;;;;4.88;3.03;;;16.40;99.90;;;;;;5050960;28;20465;-71
2022/06/18 05:03:54;;;;;;;5.00;2.50;;;16.50;99.90;;;;;;5050987;28;20025;-70
2022/06/18 05:06:20;;;;;;;5.30;2.70;;;16.60;99.90;;;;;;5048566;28;20094;-70
2022/06/18 05:08:45;;;;;;;3.10;2.25;;;16.70;99.90;;;;;;5051377;28;20024;-69
2022/06/18 05:11:11;;;;;;;3.38;2.40;;;16.80;99.90;;;;;;5050474;28;20064;-68
2022/06/18 05:13:36;;;;;;;5.32;2.58;;;17.00;99.90;;;;;;5036440;28;20059;-69
2022/06/18 05:16:02;;;;;;;3.25;2.58;;;17.00;99.90;;;;;;5053281;28;20025;-70
2022/06/18 05:18:32;;;;;;;3.97;2.70;;;17.20;99.90;;;;;;5036014;28;20044;-69
2022/06/18 05:20:58;;;;;;;3.97;2.60;;;17.30;99.90;;;;;;5053810;28;20416;-69
2022/06/18 05:23:24;;;;;;;3.05;2.47;;;17.50;99.90;;;;;;5051496;28;20023;-70
2022/06/18 05:25:57;;;;;;;3.90;2.35;;;17.60;99.90;;;;;;5053584;28;20040;-68
2022/06/18 05:28:23;;;;;;;7.72;3.08;;;17.70;99.90;;;;;;5044574;28;20805;-69
2022/06/18 05:30:48;;;;;;;3.40;2.40;;;17.90;99.90;;;;;;5051608;28;20111;-69
2022/06/18 05:33:14;;;;;;;4.82;2.40;;;18.00;99.90;;;;;;5062389;28;20040;-69
2022/06/18 05:35:42;;;;;;;5.75;2.50;;;18.10;99.90;;;;;;5051330;28;20089;-70
2022/06/18 05:38:16;;;;;;;5.93;2.47;;;18.20;99.90;;;;;;5047729;28;20028;-69
2022/06/18 05:40:45;;;;;;;3.65;2.20;;;18.40;99.90;;;;;;5056261;28;20370;-71
2022/06/18 05:43:17;;;;;;;4.10;2.20;;;18.60;99.90;;;;;;5026147;28;20032;-71
2022/06/18 05:45:44;;;;;;;3.17;2.50;;;18.70;99.90;;;;;;5053026;28;20032;-70
2022/06/18 05:48:11;;;;;;;3.88;2.50;;;19.00;99.90;;;;;;5062638;28;20128;-68
2022/06/18 05:50:36;;;;;;;3.65;2.33;;;19.00;99.90;;;;;;5063060;28;20029;-70
2022/06/18 05:53:02;;;;;;;3.30;2.40;;;19.20;99.90;;;;;;5052154;28;20021;-69
2022/06/18 05:55:27;;;;;;;2.30;1.85;;;19.30;99.90;;;;;;5056656;28;20029;-69
2022/06/18 05:57:56;;;;;;;3.50;2.30;;;19.40;99.90;;;;;;5064891;28;20021;-69
2022/06/18 06:00:28;;;;;;;3.83;2.38;;;19.70;99.90;;;;;;5060788;28;20012;-68
2022/06/18 06:02:54;;;;;;;2.58;2.20;;;19.80;99.90;;;;;;5054860;28;20025;-70
2022/06/18 06:05:20;;;;;;;3.60;2.25;;;20.00;99.90;;;;;;5058096;28;20025;-69
2022/06/18 06:07:45;;;;;;;3.08;2.35;;;20.10;99.90;;;;;;5061069;28;20017;-70
2022/06/18 06:13:08;;;;;;;2.33;1.90;;;20.40;99.90;;;;;;5045458;28;20032;-69
2022/06/18 06:15:34;;;;;;;4.20;2.35;;;20.60;99.90;;;;;;5056334;28;20024;-68
2022/06/18 06:18:00;;;;;;;3.20;2.00;;;20.70;99.90;;;;;;5053250;28;20108;-69
2022/06/18 06:20:29;;;;;;;3.53;2.10;;;20.90;99.90;;;;;;5048522;28;20027;-70
2022/06/18 06:22:54;;;;;;;3.53;2.10;;;21.00;99.90;;;;;;5046999;28;20077;-69
2022/06/18 06:25:20;;;;;;;2.95;2.13;;;21.20;99.90;;;;;;5063542;28;20052;-70
2022/06/18 06:27:45;;;;;;;6.25;2.08;;;21.30;99.90;;;;;;5051063;28;20065;-71
2022/06/18 06:30:12;;;;;;;4.60;2.10;;;21.40;99.90;;;;;;5050133;28;20025;-70
2022/06/18 06:32:38;;;;;;;3.47;2.10;;;21.50;99.90;;;;;;5049389;28;20036;-71
2022/06/18 06:35:05;;;;;;;2.60;2.08;;;21.70;99.90;;;;;;5049279;28;20488;-71
2022/06/18 06:37:31;;;;;;;6.63;2.17;;;21.90;99.90;;;;;;5041618;28;20056;-71
2022/06/18 06:39:56;;;;;;;3.90;2.00;;;22.00;99.90;;;;;;5052816;28;20386;-71
2022/06/18 06:42:22;;;;;;;3.97;2.00;;;22.20;99.90;;;;;;5053018;28;20017;-71
2022/06/18 06:44:47;;;;;;;5.97;2.10;;;22.30;99.90;;;;;;5052565;28;20148;-71
2022/06/18 06:47:13;;;;;;;2.63;2.15;;;22.40;99.90;;;;;;5052772;28;20025;-71
2022/06/18 06:49:39;;;;;;;4.47;2.15;;;22.60;99.90;;;;;;5052678;28;20032;-71
2022/06/18 06:52:04;;;;;;;6.28;2.08;;;22.80;99.90;;;;;;5052294;28;20124;-71
2022/06/18 06:54:30;;;;;;;3.10;2.08;;;22.90;99.90;;;;;;5051789;28;20050;-71
2022/06/18 06:59:39;;;;;;;7.00;2.10;;;23.10;99.90;;;;;;5048578;28;20094;-71
2022/06/18 07:02:15;;;;;;;5.22;2.10;;;23.20;99.90;;;;;;5052147;28;20449;-71
2022/06/18 07:04:40;;;;;;;3.60;1.80;;;23.40;99.90;;;;;;5052423;28;20131;-71
2022/06/18 07:07:06;;;;;;;5.97;2.08;;;23.50;99.90;;;;;;5052053;28;20537;-71
2022/06/18 07:09:32;;;;;;;8.10;1.80;;;23.60;99.90;;;;;;5052689;28;20041;-73
2022/06/18 07:11:57;;;;;;;2.53;1.92;;;23.70;99.90;;;;;;5052016;28;20025;-71
2022/06/18 07:14:23;;;;;;;2.00;1.70;;;23.70;99.90;;;;;;5048961;28;20465;-71
2022/06/18 07:16:51;;;;;;;3.92;1.70;;;23.70;99.90;;;;;;5045971;28;20108;-71
2022/06/18 07:19:18;;;;;;;2.53;1.83;;;23.70;99.90;;;;;;5046726;28;20493;-71
2022/06/18 07:21:44;;;;;;;2.33;1.70;;;23.70;99.90;;;;;;5048659;28;20037;-71
2022/06/18 07:24:09;;;;;;;4.55;1.80;;;23.80;99.90;;;;;;5048064;28;20025;-72
2022/06/18 07:26:35;;;;;;;5.45;2.25;;;23.90;99.90;;;;;;5048947;28;20036;-71
2022/06/18 07:29:01;;;;;;;2.65;1.88;;;23.90;99.90;;;;;;5048550;28;20028;-71
2022/06/18 07:31:30;;;;;;;3.53;1.77;;;23.90;99.90;;;;;;5048583;28;20025;-72
2022/06/18 07:33:59;;;;;;;2.10;1.70;;;24.00;99.90;;;;;;5049233;28;20025;-72
2022/06/18 07:36:26;;;;;;;2.58;1.75;;;24.10;99.90;;;;;;5048636;28;20029;-72
2022/06/18 07:38:52;;;;;;;2.67;1.80;;;24.10;99.90;;;;;;5048369;28;20175;-71
2022/06/18 07:41:20;;;;;;;2.83;1.80;;;24.10;99.90;;;;;;5048660;28;20041;-72
2022/06/18 07:43:54;;;;;;;3.60;2.20;;;24.20;99.90;;;;;;5048067;28;20037;-71
2022/06/18 07:46:20;;;;;;;5.75;1.70;;;24.30;99.90;;;;;;5048232;28;20028;-72
2022/06/18 07:48:45;;;;;;;3.95;1.70;;;24.40;99.90;;;;;;5048408;28;20025;-72
2022/06/18 07:51:12;;;;;;;3.33;1.90;;;24.40;99.90;;;;;;5038866;28;20021;-71
2022/06/18 07:53:39;;;;;;;4.53;2.05;;;24.50;99.90;;;;;;5045210;28;20096;-71
2022/06/18 07:56:05;;;;;;;2.17;1.55;;;24.50;99.90;;;;;;5047879;28;20709;-72
2022/06/18 07:58:31;;;;;;;3.60;1.60;;;24.60;99.90;;;;;;5048456;28;20039;-74
2022/06/18 08:00:57;;;;;;;2.65;2.05;;;24.60;99.90;;;;;;5048315;28;20028;-72
2022/06/18 08:03:23;;;;;;;3.50;1.67;;;24.70;99.90;;;;;;5048282;28;20454;-72
2022/06/18 08:05:50;;;;;;;3.15;1.85;;;24.70;99.90;;;;;;5047932;28;20044;-72
2022/06/18 08:08:16;;;;;;;4.20;1.80;;;24.80;99.90;;;;;;5030032;28;20048;-73
2022/06/18 08:10:46;;;;;;;3.03;1.63;;;24.80;99.90;;;;;;5047948;28;20041;-72
2022/06/18 08:13:12;;;;;;;2.80;1.67;;;24.90;99.90;;;;;;5048361;28;20029;-72
2022/06/18 08:15:38;;;;;;;3.08;1.65;;;25.00;99.90;;;;;;5047837;28;20535;-72
2022/06/18 08:18:03;;;;;;;1.88;1.40;;;25.10;99.90;;;;;;5038464;28;20041;-71
2022/06/18 08:20:30;;;;;;;2.22;1.35;;;25.10;99.90;;;;;;5045485;28;20110;-73
2022/06/18 08:22:57;;;;;;;3.40;1.63;;;25.20;99.90;;;;;;5043199;28;20030;-78
2022/06/18 08:25:26;;;;;;;3.85;1.70;;;25.30;99.90;;;;;;5047336;28;20705;-78
2022/06/18 08:27:55;;;;;;;5.82;2.50;;;25.30;99.90;;;;;;5049768;28;20025;-77
2022/06/18 08:30:21;;;;;;;2.05;1.48;;;25.40;99.90;;;;;;5030521;28;20681;-78
2022/06/18 08:32:46;;;;;;;2.47;1.35;;;25.50;99.90;;;;;;5029542;28;20025;-78
2022/06/18 08:35:12;;;;;;;2.00;1.40;;;25.50;99.90;;;;;;5048062;28;20024;-77
2022/06/18 08:37:39;;;;;;;1.90;1.20;;;25.50;99.90;;;;;;5048336;28;20032;-77
2022/06/18 08:40:34;;;;;;;1.92;1.45;;;25.50;99.90;;;;;;5048242;28;20103;-78
2022/06/18 08:43:22;;;;;;;1.88;1.30;;;25.60;99.90;;;;;;5043140;28;20033;-77
2022/06/18 08:46:12;;;;;;;3.85;1.20;;;25.70;99.40;;;;;;5020732;28;20063;-77
2022/06/18 08:48:53;;;;;;;4.35;1.40;;;25.80;99.30;;;;;;5047906;28;20049;-75
2022/06/18 08:51:24;;;;;;;2.10;1.40;;;25.90;99.90;;;;;;5047050;28;20079;-75
2022/06/18 08:54:17;;;;;;;1.48;1.27;;;26.00;99.60;;;;;;5048214;28;20032;-77
2022/06/18 08:56:55;;;;;;;1.75;1.23;;;26.10;99.90;;;;;;5047831;28;20044;-78
2022/06/18 08:59:36;;;;;;;3.40;1.30;;;26.10;96.90;;;;;;5046347;28;20124;-77
2022/06/18 09:02:06;;;;;;;2.08;1.10;;;26.10;97.10;;;;;;5044084;28;20048;-78
2022/06/18 09:04:39;;;;;;;2.45;1.30;;;26.20;94.90;;;;;;5048072;28;20036;-78
2022/06/18 09:07:21;;;;;;;4.22;1.30;;;26.30;94.60;;;;;;5047703;28;20033;-77
2022/06/18 09:10:25;;;;;;;4.30;1.50;;;26.40;95.40;;;;;;5047650;28;20045;-77
2022/06/18 09:13:19;;;;;;;2.58;0.90;;;26.50;95.20;;;;;;5048041;28;20025;-77
2022/06/18 09:15:49;;;;;;;2.95;1.17;;;26.60;93.30;;;;;;5029786;28;20051;-75
2022/06/18 09:18:27;;;;;;;3.20;1.40;;;26.70;93.60;;;;;;5043024;28;20083;-75
2022/06/18 09:20:55;;;;;;;1.52;1.30;;;26.80;93.40;;;;;;5044340;28;20102;-75
2022/06/18 09:23:31;;;;;;;3.65;1.30;;;26.90;93.40;;;;;;5047645;28;20025;-75
2022/06/18 09:25:59;;;;;;;3.15;1.30;;;26.90;95.00;;;;;;5048002;28;20033;-75
2022/06/18 09:28:33;;;;;;;2.53;1.48;;;27.10;94.30;;;;;;5045817;28;20036;-75
2022/06/18 09:31:12;;;;;;;2.65;1.50;;;27.20;94.80;;;;;;5026872;28;20032;-75
2022/06/18 09:33:58;;;;;;;3.70;1.55;;;27.40;93.10;;;;;;5048010;28;20061;-75
2022/06/18 09:36:32;;;;;;;2.60;1.40;;;27.60;93.50;;;;;;5048356;28;20043;-75
2022/06/18 09:39:08;;;;;;;1.90;1.40;;;27.70;92.10;;;;;;5049045;28;20067;-75
2022/06/18 09:41:48;;;;;;;3.30;1.50;;;27.90;92.00;;;;;;5049515;28;20060;-75
2022/06/18 09:44:25;;;;;;;1.88;1.30;;;28.20;91.40;;;;;;5049661;28;20086;-75
2022/06/18 09:47:05;;;;;;;4.43;1.45;;;28.60;90.80;;;;;;5047886;28;20043;-75
2022/06/18 09:49:32;;;;;;;1.60;1.30;;;28.90;90.30;;;;;;5047720;28;20025;-76
2022/06/18 09:52:04;;;;;;;2.75;1.48;;;29.10;89.90;;;;;;5047287;28;20023;-76
2022/06/18 09:54:36;;;;;;;2.22;1.30;;;29.40;87.70;;;;;;5042566;28;20029;-75
2022/06/18 09:57:04;;;;;;;5.97;1.25;;;29.60;87.50;;;;;;5047485;28;20033;-76
2022/06/18 09:59:41;;;;;;;4.00;1.33;;;29.80;87.30;;;;;;5047455;28;20041;-76
2022/06/18 10:02:21;;;;;;;4.10;1.02;;;30.20;83.90;;;;;;5047162;28;20052;-76
2022/06/18 10:07:35;;;;;;;4.90;2.05;;;30.30;79.20;;;;;;5045785;28;20048;-76
2022/06/18 10:10:06;;;;;;;1.90;1.33;;;30.40;80.50;;;;;;5038692;28;20106;-75
2022/06/18 10:12:35;;;;;;;3.50;1.30;;;30.60;81.70;;;;;;5047131;28;20028;-76
2022/06/18 10:15:05;;;;;;;2.65;1.20;;;30.60;81.00;;;;;;5047358;28;20029;-76
2022/06/18 10:18:21;;;;;;;2.65;1.60;;;30.70;85.30;;;;;;5041927;28;20068;-76
2022/06/18 10:20:57;;;;;;;2.25;1.42;;;30.80;78.20;;;;;;4965767;28;20058;-75
2022/06/18 10:23:49;;;;;;;3.35;1.30;;;30.80;78.50;;;;;;5033731;28;20041;-75
2022/06/18 10:26:42;;;;;;;3.55;1.20;;;31.20;77.80;;;;;;5046363;28;20033;-76
2022/06/18 10:29:22;;;;;;;2.13;1.20;;;31.50;78.40;;;;;;5046624;28;20025;-76
2022/06/18 10:32:11;;;;;;;3.33;1.45;;;31.70;73.40;;;;;;5046392;28;20025;-76
2022/06/18 10:35:04;;;;;;;7.80;1.42;;;31.80;74.50;;;;;;5048569;28;20025;-76
2022/06/18 10:37:33;;;;;;;2.40;1.10;;;31.70;73.00;;;;;;5050615;28;20063;-75
2022/06/18 10:40:20;;;;;;;3.08;1.48;;;31.80;70.80;;;;;;5049802;28;20029;-76
2022/06/18 10:43:15;;;;;;;3.30;1.40;;;31.80;69.70;;;;;;5049976;28;20035;-76
2022/06/18 10:45:48;;;;;;;4.97;1.20;;;31.90;69.00;;;;;;5020987;28;20061;-76
2022/06/18 10:48:18;;;;;;;4.60;1.23;;;32.00;70.50;;;;;;5031838;28;20042;-76
2022/06/18 10:50:46;;;;;;;4.32;1.40;;;32.10;70.30;;;;;;5050092;28;20032;-76
2022/06/18 10:53:16;;;;;;;2.35;1.10;;;32.20;69.30;;;;;;5050211;28;20079;-76
2022/06/18 10:55:42;;;;;;;1.77;1.30;;;32.20;70.50;;;;;;5045010;28;20110;-76
2022/06/18 10:58:13;;;;;;;2.65;1.33;;;32.50;69.70;;;;;;5050026;28;20068;-76
2022/06/18 11:00:40;;;;;;;1.58;1.00;;;32.50;65.20;;;;;;5020153;28;20029;-76
2022/06/18 11:03:19;;;;;;;3.40;1.30;;;32.30;71.00;;;;;;5050063;28;20047;-76
2022/06/18 11:05:49;;;;;;;5.50;1.42;;;32.30;66.60;;;;;;5031714;28;20027;-76
2022/06/18 11:08:29;;;;;;;3.35;1.33;;;32.40;66.60;;;;;;5045668;28;20028;-76
2022/06/18 11:11:06;;;;;;;1.35;1.00;;;32.70;64.90;;;;;;5048715;28;20075;-76
2022/06/18 11:13:39;;;;;;;3.10;1.10;;;32.80;66.80;;;;;;5049927;28;20017;-76
2022/06/18 11:16:16;;;;;;;2.72;1.33;;;33.00;62.10;;;;;;5049385;28;20032;-76
2022/06/18 11:18:48;;;;;;;3.08;1.00;;;32.90;66.80;;;;;;5043822;28;20159;-76
2022/06/18 11:21:29;;;;;;;2.35;1.15;;;33.00;63.50;;;;;;5035654;28;20029;-76
2022/06/18 11:24:15;;;;;;;5.32;1.23;;;33.10;63.90;;;;;;5049626;28;20433;-76
2022/06/18 11:26:49;;;;;;;1.30;1.10;;;33.50;59.50;;;;;;5049470;28;20074;-76
2022/06/18 11:29:23;;;;;;;3.05;1.23;;;33.50;65.20;;;;;;5038585;28;20086;-76
2022/06/18 11:31:53;;;;;;;2.97;1.30;;;33.70;63.70;;;;;;5048954;28;20382;-76
2022/06/18 11:34:24;;;;;;;2.83;1.10;;;33.80;60.90;;;;;;5049691;28;20427;-76
2022/06/18 11:36:56;;;;;;;5.35;1.55;;;34.00;60.10;;;;;;5049316;28;20484;-76
2022/06/18 11:39:31;;;;;;;1.55;1.02;;;34.20;61.60;;;;;;5051125;28;20051;-76
2022/06/18 11:42:13;;;;;;;3.88;1.13;;;34.30;58.20;;;;;;5051857;28;20033;-76
2022/06/18 11:44:53;;;;;;;5.40;1.35;;;34.70;55.90;;;;;;5048929;28;20048;-76
2022/06/18 11:47:40;;;;;;;2.20;1.27;;;34.90;56.80;;;;;;5018591;28;20043;-76
2022/06/18 11:50:14;;;;;;;1.30;1.20;;;35.00;59.30;;;;;;5049226;28;20044;-76
2022/06/18 11:53:18;;;;;;;5.47;1.35;;;34.70;56.60;;;;;;5048816;28;20029;-76
2022/06/18 11:55:50;;;;;;;4.45;1.95;;;34.20;57.80;;;;;;5048860;28;20059;-76
2022/06/18 11:58:24;;;;;;;3.63;1.20;;;34.30;62.10;;;;;;5018259;28;20033;-76
2022/06/18 12:00:57;;;;;;;6.50;1.17;;;34.00;57.70;;;;;;5036718;28;20064;-76
2022/06/18 12:03:43;;;;;;;4.57;1.58;;;34.20;59.80;;;;;;5049481;28;20131;-76
2022/06/18 12:06:31;;;;;;;4.63;1.77;;;34.40;59.40;;;;;;5031070;28;20381;-76
2022/06/18 12:08:57;;;;;;;4.47;1.35;;;34.50;58.60;;;;;;5036513;28;20071;-76
2022/06/18 12:11:39;;;;;;;2.22;1.42;;;34.50;58.00;;;;;;5048036;28;20053;-76
2022/06/18 12:14:10;;;;;;;2.70;1.10;;;34.60;57.60;;;;;;5048223;28;20029;-76
2022/06/18 12:17:04;;;;;;;4.93;1.27;;;34.70;55.00;;;;;;5048525;28;20059;-76
2022/06/18 12:19:44;;;;;;;8.43;1.60;;;34.80;57.60;;;;;;5048478;28;20029;-76
2022/06/18 12:22:19;;;;;;;5.53;1.35;;;35.10;57.30;;;;;;5047855;28;20131;-76
2022/06/18 12:24:56;;;;;;;8.23;1.50;;;35.50;56.70;;;;;;5036880;28;20056;-76
2022/06/18 12:27:28;;;;;;;5.93;1.42;;;35.50;56.30;;;;;;5047329;28;20025;-78
2022/06/18 12:30:45;;;;;;;6.72;1.35;;;35.60;57.30;;;;;;5039980;28;20029;-75
2022/06/18 12:33:42;;;;;;;13.15;1.60;;;35.50;56.20;;;;;;4995270;28;20033;-78
2022/06/18 12:36:11;;;;;;;8.63;1.48;;;35.70;54.50;;;;;;5028606;28;20167;-75
2022/06/18 12:39:03;;;;;;;7.82;1.65;;;35.70;54.00;;;;;;5050977;28;20059;-76
2022/06/18 12:41:41;;;;;;;5.90;1.52;;;35.60;52.60;;;;;;5051069;28;20021;-75
2022/06/18 12:44:26;;;;;;;5.28;1.52;;;35.20;53.20;;;;;;5050986;28;20025;-83
2022/06/18 12:47:20;;;;;;;8.90;1.73;;;35.40;55.50;;;;;;5056679;28;20381;-75
2022/06/18 12:50:05;;;;;;;;;;;35.40;52.40;;;;;;5060297;28;20024;-76
2022/06/18 12:52:37;;;;;;;9.40;1.88;;;35.50;52.90;;;;;;5063480;28;20013;-75
2022/06/18 12:55:20;;;;;;;6.25;1.50;;;35.70;54.20;;;;;;5062841;28;20028;-76
2022/06/18 12:57:59;;;;;;;8.15;1.60;;;35.70;54.20;;;;;;5054872;28;20377;-79
2022/06/18 13:00:39;;;;;;;6.80;1.88;;;35.90;53.20;;;;;;5060669;28;20032;-76
2022/06/18 13:03:16;;;;;;;7.60;1.73;;;36.20;51.70;;;;;;5052491;28;20025;-74
2022/06/18 13:05:52;;;;;;;9.35;2.05;;;35.90;52.10;;;;;;5049020;28;20021;-77
2022/06/18 13:08:36;;;;;;;9.32;1.95;;;35.70;49.60;;;;;;5056593;28;20025;-78
2022/06/18 13:11:14;;;;;;;11.50;1.92;;;35.70;50.80;;;;;;5026306;28;20087;-78
2022/06/18 13:13:58;;;;;;;11.27;2.05;;;35.70;50.70;;;;;;5038705;28;20111;-79
2022/06/18 13:16:34;;;;;;;9.35;1.98;;;35.50;51.00;;;;;;5021197;28;20043;-79
2022/06/18 13:19:24;;;;;;;10.00;1.80;;;35.30;51.70;;;;;;5044946;28;20036;-80
2022/06/18 13:21:50;;;;;;;9.48;2.55;;;35.50;53.10;;;;;;5040995;28;20079;-80
2022/06/18 13:30:11;;;;;;;7.22;1.80;;;36.00;51.10;;;;;;5036480;28;20088;-70
2022/06/18 13:32:52;;;;;;;8.27;1.88;;;35.70;50.90;;;;;;5044928;28;20075;-70
2022/06/18 13:35:57;;;;;;;10.07;1.90;;;35.40;51.50;;;;;;5040088;28;20478;-71